createdAt,value
2019-05-25T00:01:25.822Z,18.90
2019-05-25T00:03:54.269Z,15.40
2019-05-25T00:06:22.761Z,18.37
2019-05-25T00:08:51.238Z,16.37
2019-05-25T00:11:19.705Z,16.07
2019-05-25T00:13:48.157Z,15.57
2019-05-25T00:16:16.657Z,16.73
2019-05-25T00:18:45.105Z,15.63
2019-05-25T00:21:14.308Z,13.47
2019-05-25T00:23:42.849Z,13.40
2019-05-25T00:26:11.298Z,13.53
2019-05-25T00:28:39.746Z,16.40
2019-05-25T00:31:08.257Z,16.63
2019-05-25T00:33:36.707Z,19.53
2019-05-25T00:36:05.164Z,18.83
2019-05-25T00:38:33.653Z,22.57
2019-05-25T00:41:02.168Z,21.93
2019-05-25T00:43:30.624Z,29.37
2019-05-25T00:45:59.073Z,23.70
2019-05-25T00:48:27.569Z,24.03
2019-05-25T00:50:56.018Z,23.60
2019-05-25T00:53:24.536Z,26.00
2019-05-25T00:55:52.989Z,27.67
2019-05-25T00:58:21.544Z,29.53
2019-05-25T01:00:50.056Z,31.47
2019-05-25T01:03:18.509Z,31.63
2019-05-25T01:05:46.956Z,36.40
2019-05-25T01:08:15.449Z,35.70
2019-05-25T01:10:43.901Z,33.80
2019-05-25T01:13:12.352Z,33.87
2019-05-25T01:15:40.853Z,36.33
2019-05-25T01:18:09.308Z,38.00
2019-05-25T01:20:37.756Z,34.77
2019-05-25T01:23:06.381Z,38.53
2019-05-25T01:25:34.872Z,33.00
2019-05-25T01:28:03.372Z,38.53
2019-05-25T01:30:31.816Z,38.83
2019-05-25T01:33:00.329Z,35.33
2019-05-25T01:35:28.825Z,43.10
2019-05-25T01:37:57.277Z,45.53
2019-05-25T01:40:25.998Z,44.53
2019-05-25T01:42:54.489Z,41.53
2019-05-25T01:45:22.925Z,43.90
2019-05-25T01:47:51.480Z,42.87
2019-05-25T01:50:19.914Z,41.50
2019-05-25T01:52:48.391Z,47.17
2019-05-25T01:55:16.890Z,45.97
2019-05-25T01:57:45.389Z,42.77
2019-05-25T02:00:15.506Z,43.67
2019-05-25T02:02:43.990Z,39.03
2019-05-25T02:05:12.492Z,44.80
2019-05-25T02:07:40.941Z,42.23
2019-05-25T02:10:09.457Z,40.03
2019-05-25T02:12:37.949Z,46.40
2019-05-25T02:15:09.321Z,41.33
2019-05-25T02:17:37.828Z,43.40
2019-05-25T02:20:09.086Z,39.83
2019-05-25T02:22:37.560Z,38.80
2019-05-25T02:25:17.839Z,38.10
2019-05-25T02:27:37.777Z,46.33
2019-05-25T02:30:07.218Z,42.60
2019-05-25T02:32:35.658Z,43.53
2019-05-25T02:35:05.948Z,38.80
2019-05-25T02:37:34.448Z,41.10
2019-05-25T02:40:04.477Z,45.30
2019-05-25T02:42:32.957Z,44.97
2019-05-25T02:45:01.446Z,41.20
2019-05-25T02:47:29.936Z,41.60
2019-05-25T02:49:58.392Z,44.90
2019-05-25T02:52:26.848Z,49.00
2019-05-25T02:54:55.353Z,41.33
2019-05-25T02:57:23.803Z,48.30
2019-05-25T02:59:52.252Z,46.03
2019-05-25T03:02:20.987Z,49.63
2019-05-25T03:04:49.477Z,51.60
2019-05-25T03:07:17.925Z,45.57
2019-05-25T03:09:46.373Z,52.33
2019-05-25T03:12:14.908Z,51.37
2019-05-25T03:14:43.404Z,43.97
2019-05-25T03:17:11.847Z,47.73
2019-05-25T03:19:40.341Z,45.83
2019-05-25T03:22:08.861Z,43.53
2019-05-25T03:24:37.345Z,47.50
2019-05-25T03:27:05.852Z,47.27
2019-05-25T03:29:34.294Z,46.37
2019-05-25T03:32:02.807Z,46.93
2019-05-25T03:34:31.296Z,45.10
2019-05-25T03:36:59.773Z,44.80
2019-05-25T03:39:28.280Z,45.30
2019-05-25T03:41:56.748Z,43.43
2019-05-25T03:44:25.248Z,45.53
2019-05-25T03:46:53.700Z,42.30
2019-05-25T03:49:22.188Z,48.07
2019-05-25T03:51:50.641Z,47.07
2019-05-25T03:54:19.141Z,47.93
2019-05-25T03:56:47.592Z,46.27
2019-05-25T03:59:16.037Z,39.87
2019-05-25T04:01:44.532Z,37.63
2019-05-25T04:04:12.981Z,44.03
2019-05-25T04:06:41.491Z,39.87
2019-05-25T04:09:09.984Z,45.17
2019-05-25T04:11:38.497Z,41.73
2019-05-25T04:14:06.989Z,42.30
2019-05-25T04:16:35.499Z,42.17
2019-05-25T04:19:04.041Z,44.67
2019-05-25T04:21:32.514Z,46.10
2019-05-25T04:24:00.961Z,41.57
2019-05-25T04:26:29.469Z,43.93
2019-05-25T04:28:57.954Z,38.00
2019-05-25T04:31:26.408Z,41.87
2019-05-25T04:33:54.909Z,44.93
2019-05-25T04:36:23.356Z,41.13
2019-05-25T04:38:51.839Z,44.97
2019-05-25T04:41:20.305Z,41.83
2019-05-25T04:43:48.753Z,46.00
2019-05-25T04:46:17.257Z,41.00
2019-05-25T04:48:45.701Z,45.70
2019-05-25T04:51:14.145Z,37.63
2019-05-25T04:53:42.749Z,38.70
2019-05-25T04:56:11.192Z,44.67
2019-05-25T04:58:39.636Z,42.80
2019-05-25T05:01:08.137Z,34.30
2019-05-25T05:03:36.586Z,40.77
2019-05-25T05:06:05.038Z,44.17
2019-05-25T05:08:35.815Z,52.27
2019-05-25T05:11:03.714Z,55.93
2019-05-25T05:13:32.189Z,47.53
2019-05-25T05:16:00.693Z,50.40
2019-05-25T05:18:29.139Z,47.67
2019-05-25T05:20:57.577Z,51.30
2019-05-25T05:23:26.097Z,47.37
2019-05-25T05:25:54.552Z,50.97
2019-05-25T05:28:22.997Z,48.23
2019-05-25T05:30:51.485Z,50.63
2019-05-25T05:33:19.986Z,49.97
2019-05-25T05:35:48.429Z,51.93
2019-05-25T05:38:16.884Z,46.53
2019-05-25T05:40:45.382Z,44.40
2019-05-25T05:43:13.850Z,43.67
2019-05-25T05:45:42.977Z,49.07
2019-05-25T05:48:11.598Z,47.13
2019-05-25T05:50:40.040Z,46.10
2019-05-25T05:53:08.519Z,43.47
2019-05-25T05:55:36.989Z,44.90
2019-05-25T05:58:05.433Z,41.67
2019-05-25T06:00:33.921Z,43.40
2019-05-25T06:03:02.413Z,48.33
2019-05-25T06:05:30.997Z,51.50
2019-05-25T06:07:59.449Z,47.03
2019-05-25T06:10:27.898Z,51.30
2019-05-25T06:12:56.480Z,53.30
2019-05-25T06:15:24.929Z,49.43
2019-05-25T06:17:53.409Z,49.23
2019-05-25T06:20:21.925Z,47.47
2019-05-25T06:22:50.417Z,47.93
2019-05-25T06:25:18.867Z,49.50
2019-05-25T06:27:47.398Z,44.73
2019-05-25T06:30:17.136Z,43.10
2019-05-25T06:32:45.661Z,49.37
2019-05-25T06:35:14.317Z,46.00
2019-05-25T06:37:42.823Z,43.27
2019-05-25T06:40:11.307Z,48.33
2019-05-25T06:42:39.829Z,49.80
2019-05-25T06:45:08.308Z,45.87
2019-05-25T06:47:36.761Z,44.63
2019-05-25T06:50:08.230Z,42.63
2019-05-25T06:52:36.765Z,40.87
2019-05-25T06:55:08.263Z,41.93
2019-05-25T06:57:43.287Z,47.80
2019-05-25T07:00:07.454Z,42.70
2019-05-25T07:02:35.948Z,47.23
2019-05-25T07:05:06.851Z,41.63
2019-05-25T07:07:35.349Z,37.27
2019-05-25T07:10:06.405Z,36.57
2019-05-25T07:12:34.849Z,39.87
2019-05-25T07:15:04.644Z,41.97
2019-05-25T07:17:33.139Z,44.07
2019-05-25T07:20:01.677Z,38.10
2019-05-25T07:22:30.201Z,41.80
2019-05-25T07:24:58.728Z,44.60
2019-05-25T07:27:27.186Z,37.93
2019-05-25T07:29:55.685Z,38.43
2019-05-25T07:32:24.129Z,38.13
2019-05-25T07:34:52.581Z,46.27
2019-05-25T07:37:21.204Z,41.37
2019-05-25T07:39:49.624Z,42.03
2019-05-25T07:42:19.992Z,41.30
2019-05-25T07:44:48.214Z,43.53
2019-05-25T07:47:16.661Z,47.00
2019-05-25T07:49:45.113Z,40.17
2019-05-25T07:52:13.597Z,42.83
2019-05-25T07:54:42.048Z,48.77
2019-05-25T07:57:10.501Z,42.47
2019-05-25T07:59:38.997Z,44.03
2019-05-25T08:02:07.485Z,47.03
2019-05-25T08:04:35.954Z,47.60
2019-05-25T08:07:04.437Z,41.07
2019-05-25T08:09:32.889Z,45.77
2019-05-25T08:12:01.577Z,39.73
2019-05-25T08:14:30.149Z,44.83
2019-05-25T08:16:58.589Z,45.87
2019-05-25T08:19:27.121Z,45.20
2019-05-25T08:21:55.612Z,40.60
2019-05-25T08:24:24.071Z,43.63
2019-05-25T08:26:52.564Z,47.33
2019-05-25T08:29:21.019Z,46.00
2019-05-25T08:31:49.539Z,40.17
2019-05-25T08:34:17.989Z,45.13
2019-05-25T08:36:46.504Z,41.87
2019-05-25T08:39:15.045Z,45.67
2019-05-25T08:41:45.672Z,43.93
2019-05-25T08:44:13.718Z,40.90
2019-05-25T08:46:42.145Z,40.97
2019-05-25T08:49:12.488Z,42.67
2019-05-25T08:51:40.889Z,42.70
2019-05-25T08:54:09.336Z,45.33
2019-05-25T08:56:37.976Z,43.17
2019-05-25T08:59:06.429Z,41.63
2019-05-25T09:01:34.952Z,36.23
2019-05-25T09:04:03.670Z,36.47
2019-05-25T09:06:32.172Z,42.70
2019-05-25T09:09:00.616Z,42.60
2019-05-25T09:11:29.324Z,42.53
2019-05-25T09:13:57.772Z,43.27
2019-05-25T09:16:26.212Z,45.90
2019-05-25T09:18:54.720Z,37.63
2019-05-25T09:21:23.315Z,41.80
2019-05-25T09:23:51.754Z,42.17
2019-05-25T09:26:20.349Z,43.80
2019-05-25T09:29:03.493Z,39.03
2019-05-25T09:31:18.919Z,34.70
2019-05-25T09:33:47.369Z,36.73
2019-05-25T09:36:15.861Z,33.17
2019-05-25T09:38:44.384Z,28.30
2019-05-25T09:41:12.826Z,28.63
2019-05-25T09:43:41.477Z,32.20
2019-05-25T09:46:09.972Z,26.70
2019-05-25T09:48:38.558Z,25.67
2019-05-25T09:51:15.262Z,26.67
2019-05-25T09:53:37.184Z,23.67
2019-05-25T09:56:05.634Z,23.73
2019-05-25T09:58:34.116Z,28.87
2019-05-25T10:01:02.659Z,29.00
2019-05-25T10:03:31.084Z,27.37
2019-05-25T10:05:59.536Z,24.23
2019-05-25T10:08:28.032Z,24.20
2019-05-25T10:10:56.489Z,23.10
2019-05-25T10:13:24.969Z,27.90
2019-05-25T10:15:53.505Z,21.33
2019-05-25T10:18:22.029Z,23.57
2019-05-25T10:20:50.492Z,23.23
2019-05-25T10:23:19.012Z,27.40
2019-05-25T10:25:47.456Z,24.03
2019-05-25T10:28:15.916Z,29.60
2019-05-25T10:30:44.404Z,29.87
2019-05-25T10:33:12.854Z,37.40
2019-05-25T10:35:41.504Z,51.47
2019-05-25T10:38:09.961Z,43.13
2019-05-25T10:40:38.418Z,37.57
2019-05-25T10:43:06.977Z,37.83
2019-05-25T10:45:35.429Z,44.30
2019-05-25T10:48:04.097Z,41.53
2019-05-25T10:50:32.557Z,41.30
2019-05-25T10:53:01.068Z,36.50
2019-05-25T10:55:29.633Z,37.50
2019-05-25T10:57:58.146Z,38.03
2019-05-25T11:00:27.263Z,32.87
2019-05-25T11:02:55.769Z,31.70
2019-05-25T11:05:24.228Z,34.37
2019-05-25T11:07:52.676Z,33.67
2019-05-25T11:10:21.168Z,36.60
2019-05-25T11:12:49.621Z,34.30
2019-05-25T11:15:18.117Z,37.37
2019-05-25T11:17:46.569Z,34.23
2019-05-25T11:20:15.125Z,35.60
2019-05-25T11:22:43.590Z,41.03
2019-05-25T11:25:12.201Z,34.33
2019-05-25T11:27:40.693Z,31.87
2019-05-25T11:30:10.318Z,37.30
2019-05-25T11:32:38.967Z,34.67
2019-05-25T11:35:08.045Z,33.87
2019-05-25T11:37:36.489Z,35.43
2019-05-25T11:40:08.054Z,37.77
2019-05-25T11:42:36.517Z,34.83
2019-05-25T11:45:07.697Z,35.47
2019-05-25T11:47:36.145Z,37.87
2019-05-25T11:50:08.003Z,35.57
2019-05-25T11:52:36.484Z,37.13
2019-05-25T11:55:08.459Z,38.73
2019-05-25T11:57:36.919Z,37.30
2019-05-25T12:00:23.341Z,40.00
2019-05-25T12:02:38.189Z,44.97
2019-05-25T12:05:07.577Z,42.17
2019-05-25T12:07:36.101Z,41.10
2019-05-25T12:10:05.646Z,46.73
2019-05-25T12:12:34.230Z,37.13
2019-05-25T12:15:02.688Z,41.57
2019-05-25T12:17:31.169Z,43.53
2019-05-25T12:19:59.658Z,40.00
2019-05-25T12:22:28.178Z,36.93
2019-05-25T12:24:56.674Z,44.30
2019-05-25T12:27:25.117Z,43.50
2019-05-25T12:29:53.571Z,47.87
2019-05-25T12:32:22.083Z,40.47
2019-05-25T12:34:50.530Z,39.33
2019-05-25T12:37:18.965Z,47.03
2019-05-25T12:39:47.464Z,43.43
2019-05-25T12:42:15.950Z,39.70
2019-05-25T12:44:44.386Z,40.13
2019-05-25T12:47:12.837Z,40.53
2019-05-25T12:49:50.675Z,39.60
2019-05-25T12:52:11.433Z,40.77
2019-05-25T12:54:39.887Z,35.63
2019-05-25T12:57:08.369Z,34.97
2019-05-25T12:59:36.874Z,35.47
2019-05-25T13:02:05.585Z,37.47
2019-05-25T13:04:34.035Z,37.13
2019-05-25T13:07:02.613Z,39.53
2019-05-25T13:09:31.066Z,39.23
2019-05-25T13:11:59.514Z,41.37
2019-05-25T13:14:28.000Z,39.97
2019-05-25T13:16:56.561Z,44.87
2019-05-25T13:19:25.064Z,40.70
2019-05-25T13:21:53.581Z,35.43
2019-05-25T13:24:22.054Z,34.13
2019-05-25T13:26:50.500Z,31.23
2019-05-25T13:29:19.002Z,33.47
2019-05-25T13:31:47.449Z,31.37
2019-05-25T13:34:15.902Z,27.17
2019-05-25T13:36:44.417Z,26.33
2019-05-25T13:39:12.908Z,30.87
2019-05-25T13:41:41.433Z,31.83
2019-05-25T13:44:09.939Z,30.50
2019-05-25T13:46:38.454Z,29.17
2019-05-25T13:49:06.902Z,34.87
2019-05-25T13:51:37.101Z,35.23
2019-05-25T13:54:05.551Z,29.67
2019-05-25T13:56:34.019Z,32.77
2019-05-25T13:59:02.509Z,35.57
2019-05-25T14:01:30.960Z,28.83
2019-05-25T14:03:59.428Z,30.43
2019-05-25T14:06:27.925Z,28.97
2019-05-25T14:08:56.377Z,30.27
2019-05-25T14:11:24.884Z,29.70
2019-05-25T14:13:53.317Z,29.40
2019-05-25T14:16:21.770Z,35.27
2019-05-25T14:18:50.324Z,26.17
2019-05-25T14:21:18.775Z,22.90
2019-05-25T14:23:47.217Z,20.87
2019-05-25T14:26:15.724Z,21.63
2019-05-25T14:28:44.170Z,20.90
2019-05-25T14:31:12.645Z,21.63
2019-05-25T14:33:41.206Z,22.47
2019-05-25T14:36:09.649Z,22.00
2019-05-25T14:38:38.160Z,26.30
2019-05-25T14:41:06.601Z,28.87
2019-05-25T14:43:35.117Z,24.70
2019-05-25T14:46:03.611Z,25.70
2019-05-25T14:48:32.121Z,25.00
2019-05-25T14:51:00.564Z,29.50
2019-05-25T14:53:29.052Z,25.83
2019-05-25T14:55:57.502Z,27.57
2019-05-25T14:58:25.945Z,29.60
2019-05-25T15:00:54.450Z,25.13
2019-05-25T15:03:22.969Z,30.37
2019-05-25T15:05:51.511Z,26.13
2019-05-25T15:08:20.001Z,27.40
2019-05-25T15:10:48.447Z,28.83
2019-05-25T15:13:16.933Z,27.70
2019-05-25T15:15:45.381Z,29.97
2019-05-25T15:18:13.862Z,28.57
2019-05-25T15:20:44.709Z,24.77
2019-05-25T15:23:13.214Z,24.00
2019-05-25T15:25:41.666Z,24.47
2019-05-25T15:28:10.118Z,25.70
2019-05-25T15:30:38.609Z,26.47
2019-05-25T15:33:07.057Z,26.43
2019-05-25T15:35:35.516Z,23.57
2019-05-25T15:38:04.018Z,23.47
2019-05-25T15:40:32.469Z,23.13
2019-05-25T15:43:03.791Z,25.63
2019-05-25T15:45:32.311Z,27.63
2019-05-25T15:48:00.748Z,22.90
2019-05-25T15:50:29.246Z,21.50
2019-05-25T15:52:57.833Z,18.53
2019-05-25T15:55:26.310Z,17.93
2019-05-25T15:57:54.814Z,23.43
2019-05-25T16:00:26.522Z,25.23
2019-05-25T16:02:55.179Z,21.60
2019-05-25T16:05:23.700Z,22.30
2019-05-25T16:07:52.158Z,23.63
2019-05-25T16:10:20.758Z,24.10
2019-05-25T16:12:49.253Z,24.27
2019-05-25T16:15:21.008Z,27.47
2019-05-25T16:17:49.457Z,21.93
2019-05-25T16:20:21.214Z,21.63
2019-05-25T16:22:49.772Z,19.83
2019-05-25T16:25:18.346Z,22.23
2019-05-25T16:27:46.834Z,19.73
2019-05-25T16:30:15.297Z,22.30
2019-05-25T16:35:13.966Z,24.20
2019-05-25T16:37:42.711Z,24.17
2019-05-25T16:40:11.364Z,21.83
2019-05-25T16:42:39.957Z,23.00
2019-05-25T16:45:09.241Z,22.93
2019-05-25T16:47:37.693Z,22.77
2019-05-25T16:50:08.123Z,22.47
2019-05-25T16:52:36.625Z,21.27
2019-05-25T16:55:08.527Z,21.60
2019-05-25T16:57:36.942Z,21.93
2019-05-25T17:00:07.205Z,21.60
2019-05-25T17:02:35.661Z,19.50
2019-05-25T17:05:04.477Z,21.40
2019-05-25T17:07:32.965Z,19.73
2019-05-25T17:10:01.482Z,23.10
2019-05-25T17:12:29.928Z,21.93
2019-05-25T17:14:58.417Z,23.67
2019-05-25T17:17:26.915Z,19.50
2019-05-25T17:19:55.361Z,21.50
2019-05-25T17:22:23.875Z,21.93
2019-05-25T17:24:52.394Z,21.53
2019-05-25T17:27:20.837Z,23.00
2019-05-25T17:29:49.285Z,23.30
2019-05-25T17:32:17.777Z,21.20
2019-05-25T17:34:46.217Z,24.50
2019-05-25T17:37:14.661Z,25.33
2019-05-25T17:39:43.153Z,28.63
2019-05-25T17:42:11.593Z,23.17
2019-05-25T17:44:40.178Z,22.80
2019-05-25T17:47:08.617Z,19.40
2019-05-25T17:49:37.146Z,17.17
2019-05-25T17:52:05.645Z,17.57
2019-05-25T17:54:34.174Z,19.37
2019-05-25T17:57:02.685Z,17.60
2019-05-25T17:59:31.189Z,16.77
2019-05-25T18:01:59.711Z,18.73
2019-05-25T18:04:28.220Z,16.40
2019-05-25T18:06:56.701Z,15.80
2019-05-25T18:09:25.214Z,13.30
2019-05-25T18:11:53.648Z,14.77
2019-05-25T18:14:22.098Z,14.43
2019-05-25T18:16:50.614Z,16.47
2019-05-25T18:19:19.062Z,16.27
2019-05-25T18:21:47.504Z,20.93
2019-05-25T18:24:16.107Z,21.00
2019-05-25T18:26:44.593Z,16.93
2019-05-25T18:29:13.042Z,19.77
2019-05-25T18:31:41.558Z,21.97
2019-05-25T18:34:21.744Z,23.30
2019-05-25T18:36:40.108Z,19.43
2019-05-25T18:39:08.607Z,18.00
2019-05-25T18:41:37.058Z,17.37
2019-05-25T18:44:05.549Z,18.20
2019-05-25T18:46:33.999Z,17.30
2019-05-25T18:49:02.450Z,15.10
2019-05-25T18:51:30.945Z,14.43
2019-05-25T18:53:59.471Z,14.80
2019-05-25T18:56:27.921Z,17.87
2019-05-25T18:58:56.749Z,18.43
2019-05-25T19:01:25.420Z,16.27
2019-05-25T19:03:53.918Z,15.87
2019-05-25T19:06:22.368Z,16.77
2019-05-25T19:08:50.855Z,16.83
2019-05-25T19:11:19.361Z,19.33
2019-05-25T19:13:48.028Z,15.17
2019-05-25T19:16:16.480Z,19.33
2019-05-25T19:18:44.973Z,16.20
2019-05-25T19:21:13.421Z,18.23
2019-05-25T19:23:41.862Z,14.93
2019-05-25T19:26:10.360Z,15.17
2019-05-25T19:28:38.877Z,19.17
2019-05-25T19:31:07.373Z,16.87
2019-05-25T19:33:35.821Z,18.13
2019-05-25T19:36:04.272Z,16.00
2019-05-25T19:38:32.756Z,14.03
2019-05-25T19:41:01.278Z,15.70
2019-05-25T19:43:29.781Z,17.17
2019-05-25T19:45:58.234Z,13.07
2019-05-25T19:48:26.715Z,11.53
2019-05-25T19:50:56.364Z,12.87
2019-05-25T19:53:24.936Z,13.20
2019-05-25T19:55:53.389Z,12.20
2019-05-25T19:58:21.971Z,11.73
2019-05-25T20:00:51.703Z,11.53
2019-05-25T20:03:20.216Z,12.70
2019-05-25T20:05:48.660Z,14.20
2019-05-25T20:08:17.157Z,10.73
2019-05-25T20:10:45.664Z,12.17
2019-05-25T20:13:14.185Z,13.20
2019-05-25T20:15:42.694Z,10.50
2019-05-25T20:18:11.145Z,11.30
2019-05-25T20:20:39.602Z,16.33
2019-05-25T20:23:08.162Z,15.10
2019-05-25T20:25:36.616Z,11.83
2019-05-25T20:28:05.121Z,10.87
2019-05-25T20:30:33.560Z,8.83
2019-05-25T20:33:02.025Z,13.80
2019-05-25T20:35:33.456Z,10.00
2019-05-25T20:38:00.627Z,13.30
2019-05-25T20:40:29.076Z,12.17
2019-05-25T20:42:57.605Z,12.70
2019-05-25T20:45:26.048Z,13.57
2019-05-25T20:47:54.536Z,13.47
2019-05-25T20:50:23.041Z,15.43
2019-05-25T20:52:51.517Z,15.00
2019-05-25T20:55:19.953Z,15.97
2019-05-25T20:57:48.454Z,19.10
2019-05-25T21:00:16.905Z,17.07
2019-05-25T21:02:45.555Z,15.50
2019-05-25T21:05:14.077Z,17.03
2019-05-25T21:07:42.532Z,18.93
2019-05-25T21:10:11.527Z,17.20
2019-05-25T21:12:39.957Z,16.37
2019-05-25T21:15:08.440Z,15.97
2019-05-25T21:17:36.888Z,17.97
2019-05-25T21:20:06.254Z,20.30
2019-05-25T21:22:34.700Z,15.27
2019-05-25T21:25:05.940Z,17.13
2019-05-25T21:27:34.571Z,19.13
2019-05-25T21:30:03.130Z,18.10
2019-05-25T21:32:31.607Z,20.67
2019-05-25T21:35:00.104Z,19.03
2019-05-25T21:37:28.540Z,19.37
2019-05-25T21:39:57.019Z,16.50
2019-05-25T21:42:25.509Z,18.40
2019-05-25T21:44:53.960Z,24.70
2019-05-25T21:47:22.404Z,23.27
2019-05-25T21:49:50.925Z,23.73
2019-05-25T21:52:19.366Z,24.77
2019-05-25T21:54:47.813Z,25.63
2019-05-25T21:57:16.333Z,23.80
2019-05-25T21:59:44.779Z,25.90
2019-05-25T22:02:13.230Z,29.70
2019-05-25T22:04:41.742Z,27.90
2019-05-25T22:07:10.259Z,26.03
2019-05-25T22:09:38.878Z,26.07
2019-05-25T22:12:07.384Z,29.23
2019-05-25T22:14:35.820Z,25.07
2019-05-25T22:17:04.269Z,25.03
2019-05-25T22:19:32.817Z,24.50
2019-05-25T22:22:01.314Z,28.43
2019-05-25T22:24:29.806Z,30.47
2019-05-25T22:26:58.250Z,29.53
2019-05-25T22:29:26.709Z,30.97
2019-05-25T22:31:56.277Z,32.67
2019-05-25T22:34:24.733Z,32.40
2019-05-25T22:36:55.130Z,29.80
2019-05-25T22:39:24.043Z,31.90
2019-05-25T22:41:54.250Z,28.93
2019-05-25T22:44:22.710Z,33.40
2019-05-25T22:46:51.197Z,30.00
2019-05-25T22:49:19.645Z,31.83
2019-05-25T22:51:48.086Z,29.87
2019-05-25T22:54:17.140Z,29.73
2019-05-25T22:56:45.584Z,29.63
2019-05-25T22:59:14.033Z,31.33
2019-05-25T23:01:42.529Z,31.43
2019-05-25T23:04:10.976Z,28.73
2019-05-25T23:06:56.113Z,28.93
2019-05-25T23:09:09.552Z,28.30
2019-05-25T23:11:38.046Z,28.80
2019-05-25T23:14:09.711Z,30.63
2019-05-25T23:16:36.585Z,29.03
2019-05-25T23:19:05.161Z,28.37
2019-05-25T23:21:33.605Z,30.63
2019-05-25T23:24:02.053Z,34.30
2019-05-25T23:26:30.548Z,32.67
2019-05-25T23:28:58.999Z,30.93
2019-05-25T23:31:27.444Z,31.93
2019-05-25T23:33:55.925Z,32.70
2019-05-25T23:36:24.413Z,31.47
2019-05-25T23:38:52.900Z,26.63
2019-05-25T23:41:21.411Z,30.40
2019-05-25T23:43:49.848Z,33.83
2019-05-25T23:46:18.297Z,29.33
2019-05-25T23:48:46.793Z,28.30
2019-05-25T23:51:15.232Z,31.37
2019-05-25T23:53:43.680Z,27.27
2019-05-25T23:56:12.177Z,31.13
2019-05-25T23:58:40.625Z,28.17
